Time,TemperatureF,DewpointF,PressureIn,WindDirection,WindDirectionDegrees,WindSpeedMPH,WindSpeedGustMPH,Humidity,HourlyPrecipIn,Conditions,Clouds,dailyrainin,SoftwareType,DateUTC
2013-06-17 00:04:00,74.2,68.0,29.89,NNW,334,0.0,0.0,80,0.00,,,0.00,weatherlink.com 1.10,2013-06-17 04:04:00,
2013-06-17 00:19:00,73.9,68.0,29.89,NNW,334,0.0,0.0,82,0.00,,,0.00,weatherlink.com 1.10,2013-06-17 04:19:00,
2013-06-17 00:34:00,73.2,68.0,29.89,NNW,334,0.0,1.0,83,0.00,,,0.00,weatherlink.com 1.10,2013-06-17 04:34:00,
2013-06-17 00:49:00,72.8,67.0,29.89,NNW,334,0.0,0.0,83,0.00,,,0.00,weatherlink.com 1.10,2013-06-17 04:49:00,
2013-06-17 01:04:00,72.1,67.0,29.89,NNW,334,0.0,1.0,83,0.00,,,0.00,weatherlink.com 1.10,2013-06-17 05:04:00,
2013-06-17 01:19:00,72.1,67.0,29.90,NNW,334,0.0,0.0,84,0.00,,,0.00,weatherlink.com 1.10,2013-06-17 05:19:00,
2013-06-17 01:34:00,72.0,67.0,29.90,NNW,334,0.0,1.0,84,0.00,,,0.00,weatherlink.com 1.10,2013-06-17 05:34:00,
2013-06-17 01:49:00,71.8,66.0,29.90,NNW,334,0.0,1.0,82,0.00,,,0.00,weatherlink.com 1.10,2013-06-17 05:49:00,
2013-06-17 02:04:00,72.3,66.0,29.90,NNW,334,0.0,0.0,81,0.00,,,0.00,weatherlink.com 1.10,2013-06-17 06:04:00,
2013-06-17 02:19:00,72.7,66.0,29.90,NNW,334,0.0,0.0,79,0.00,,,0.00,weatherlink.com 1.10,2013-06-17 06:19:00,
2013-06-17 02:34:00,72.8,66.0,29.89,NNW,334,0.0,0.0,79,0.00,,,0.00,weatherlink.com 1.10,2013-06-17 06:34:00,
2013-06-17 02:49:00,72.8,66.0,29.89,NNW,334,0.0,2.0,79,0.00,,,0.00,weatherlink.com 1.10,2013-06-17 06:49:00,
2013-06-17 03:04:00,73.0,66.0,29.89,NNW,334,0.0,2.0,78,0.00,,,0.00,weatherlink.com 1.10,2013-06-17 07:04:00,
2013-06-17 03:19:00,73.5,66.0,29.89,NNW,334,0.0,1.0,76,0.00,,,0.00,weatherlink.com 1.10,2013-06-17 07:19:00,
2013-06-17 03:34:00,73.9,65.0,29.90,NNW,334,0.0,1.0,73,0.00,,,0.00,weatherlink.com 1.10,2013-06-17 07:34:00,
2013-06-17 03:49:00,73.9,65.0,29.90,NNW,334,0.0,1.0,74,0.00,,,0.00,weatherlink.com 1.10,2013-06-17 07:49:00,
2013-06-17 04:04:00,73.5,65.0,29.90,NNW,334,0.0,1.0,75,0.00,,,0.00,weatherlink.com 1.10,2013-06-17 08:04:00,
2013-06-17 04:19:00,73.7,66.0,29.90,NNW,334,0.0,0.0,76,0.00,,,0.00,weatherlink.com 1.10,2013-06-17 08:19:00,
2013-06-17 04:34:00,73.5,66.0,29.90,NNW,334,0.0,1.0,76,0.00,,,0.00,weatherlink.com 1.10,2013-06-17 08:34:00,
2013-06-17 04:49:00,73.2,66.0,29.90,NNW,334,0.0,0.0,78,0.00,,,0.00,weatherlink.com 1.10,2013-06-17 08:49:00,
2013-06-17 05:04:00,72.8,66.0,29.91,NNW,334,0.0,0.0,79,0.00,,,0.00,weatherlink.com 1.10,2013-06-17 09:04:00,
2013-06-17 05:19:00,72.5,66.0,29.91,NNW,334,0.0,0.0,81,0.00,,,0.00,weatherlink.com 1.10,2013-06-17 09:19:00,
2013-06-17 05:34:00,72.3,67.0,29.91,NNW,334,0.0,0.0,82,0.00,,,0.00,weatherlink.com 1.10,2013-06-17 09:34:00,
2013-06-17 05:49:00,72.0,67.0,29.91,NNW,334,0.0,0.0,83,0.00,,,0.00,weatherlink.com 1.10,2013-06-17 09:49:00,
2013-06-17 06:04:00,71.8,67.0,29.92,NNW,334,0.0,1.0,85,0.00,,,0.00,weatherlink.com 1.10,2013-06-17 10:04:00,
2013-06-17 06:19:00,71.8,68.0,29.92,NNW,334,0.0,0.0,86,0.00,,,0.00,weatherlink.com 1.10,2013-06-17 10:19:00,
2013-06-17 06:34:00,71.8,68.0,29.92,NNW,334,0.0,0.0,86,0.00,,,0.00,weatherlink.com 1.10,2013-06-17 10:34:00,
2013-06-17 06:49:00,72.0,68.0,29.93,NNW,334,0.0,0.0,86,0.00,,,0.00,weatherlink.com 1.10,2013-06-17 10:49:00,
2013-06-17 07:04:00,72.3,68.0,29.93,NNW,334,0.0,1.0,85,0.00,,,0.00,weatherlink.com 1.10,2013-06-17 11:04:00,
2013-06-17 07:19:00,73.0,68.0,29.93,NNW,334,0.0,0.0,84,0.00,,,0.00,weatherlink.com 1.10,2013-06-17 11:19:00,
2013-06-17 07:34:00,73.7,68.0,29.93,NNW,334,0.0,2.0,81,0.00,,,0.00,weatherlink.com 1.10,2013-06-17 11:34:00,
2013-06-17 07:49:00,74.0,68.0,29.94,NNW,334,0.0,2.0,80,0.00,,,0.00,weatherlink.com 1.10,2013-06-17 11:49:00,
2013-06-17 08:04:00,74.6,68.0,29.94,NNW,334,1.0,1.0,79,0.00,,,0.00,weatherlink.com 1.10,2013-06-17 12:04:00,
2013-06-17 08:19:00,75.3,68.0,29.94,NNW,334,0.0,1.0,78,0.00,,,0.00,weatherlink.com 1.10,2013-06-17 12:19:00,
2013-06-17 08:34:00,76.0,68.0,29.94,NNW,334,0.0,2.0,77,0.00,,,0.00,weatherlink.com 1.10,2013-06-17 12:34:00,
2013-06-17 08:49:00,76.8,68.0,29.94,SE,140,1.0,4.0,75,0.00,,,0.00,weatherlink.com 1.10,2013-06-17 12:49:00,
2013-06-17 09:04:00,77.7,68.0,29.93,SE,140,2.0,2.0,72,0.00,,,0.00,weatherlink.com 1.10,2013-06-17 13:04:00,
2013-06-17 09:20:00,78.1,68.0,29.93,SSW,206,0.0,3.0,72,0.00,,,0.00,weatherlink.com 1.10,2013-06-17 13:20:00,
2013-06-17 09:35:00,78.6,68.0,29.93,NNW,329,1.0,4.0,71,0.00,,,0.00,weatherlink.com 1.10,2013-06-17 13:35:00,
2013-06-17 09:50:00,78.8,69.0,29.93,NNW,328,0.0,1.0,71,0.00,,,0.00,weatherlink.com 1.10,2013-06-17 13:50:00,
2013-06-17 10:05:00,79.2,69.0,29.93,NW,321,0.0,3.0,71,0.00,,,0.00,weatherlink.com 1.10,2013-06-17 14:05:00,
2013-06-17 10:20:00,78.8,68.0,29.93,NW,312,0.0,7.0,70,0.00,,,0.00,weatherlink.com 1.10,2013-06-17 14:20:00,
2013-06-17 10:35:00,79.0,68.0,29.93,NW,316,3.0,5.0,70,0.00,,,0.00,weatherlink.com 1.10,2013-06-17 14:35:00,
2013-06-17 10:50:00,79.6,69.0,29.92,NW,314,2.0,3.0,70,0.00,,,0.00,weatherlink.com 1.10,2013-06-17 14:50:00,
2013-06-17 11:05:00,80.3,68.0,29.92,WNW,299,1.0,3.0,66,0.00,,,0.00,weatherlink.com 1.10,2013-06-17 15:05:00,
2013-06-17 11:20:00,80.9,68.0,29.91,NW,304,1.0,6.0,64,0.00,,,0.00,weatherlink.com 1.10,2013-06-17 15:20:00,
2013-06-17 11:35:00,81.8,66.0,29.91,NNW,333,3.0,6.0,59,0.00,,,0.00,weatherlink.com 1.10,2013-06-17 15:35:00,
2013-06-17 11:50:00,81.8,66.0,29.91,NNW,342,4.0,11.0,59,0.00,,,0.00,weatherlink.com 1.10,2013-06-17 15:50:00,
2013-06-17 12:05:00,81.6,66.0,29.91,NNW,338,7.0,11.0,59,0.00,,,0.00,weatherlink.com 1.10,2013-06-17 16:05:00,
2013-06-17 12:20:00,81.8,65.0,29.91,North,360,9.0,9.0,58,0.00,,,0.00,weatherlink.com 1.10,2013-06-17 16:20:00,
2013-06-17 12:35:00,82.6,65.0,29.91,NW,306,3.0,10.0,56,0.00,,,0.00,weatherlink.com 1.10,2013-06-17 16:35:00,
2013-06-17 12:50:00,82.4,66.0,29.91,NNW,338,1.0,7.0,58,0.00,,,0.00,weatherlink.com 1.10,2013-06-17 16:50:00,
2013-06-17 13:05:00,83.0,68.0,29.91,NNW,338,3.0,5.0,60,0.00,,,0.00,weatherlink.com 1.10,2013-06-17 17:05:00,
2013-06-17 13:20:00,81.1,70.0,29.91,SW,217,3.0,9.0,69,0.00,,,0.00,weatherlink.com 1.10,2013-06-17 17:20:00,
2013-06-17 13:35:00,81.2,68.0,29.91,SW,219,0.0,6.0,64,0.00,,,0.00,weatherlink.com 1.10,2013-06-17 17:35:00,
2013-06-17 13:50:00,79.6,69.0,29.91,SW,229,4.0,10.0,71,0.00,,,0.00,weatherlink.com 1.10,2013-06-17 17:50:00,
2013-06-17 14:05:00,79.8,69.0,29.91,SW,225,7.0,9.0,69,0.00,,,0.00,weatherlink.com 1.10,2013-06-17 18:05:00,
2013-06-17 14:20:00,79.4,69.0,29.90,SSW,202,8.0,12.0,70,0.00,,,0.00,weatherlink.com 1.10,2013-06-17 18:20:00,
2013-06-17 14:35:00,79.8,69.0,29.90,SW,215,7.0,14.0,69,0.00,,,0.00,weatherlink.com 1.10,2013-06-17 18:35:00,
2013-06-17 14:50:00,80.1,69.0,29.90,SW,233,7.0,15.0,68,0.00,,,0.00,weatherlink.com 1.10,2013-06-17 18:50:00,
2013-06-17 15:05:00,79.9,70.0,29.90,SW,225,10.0,15.0,72,0.00,,,0.00,weatherlink.com 1.10,2013-06-17 19:05:00,
2013-06-17 15:20:00,79.2,70.0,29.89,SW,221,12.0,14.0,74,0.00,,,0.00,weatherlink.com 1.10,2013-06-17 19:20:00,
2013-06-17 15:35:00,79.0,69.0,29.89,SW,221,12.0,15.0,72,0.00,,,0.00,weatherlink.com 1.10,2013-06-17 19:35:00,
2013-06-17 15:50:00,79.4,70.0,29.88,SW,225,11.0,13.0,72,0.00,,,0.00,weatherlink.com 1.10,2013-06-17 19:50:00,
2013-06-17 16:05:00,80.9,70.0,29.88,SW,214,3.0,9.0,69,0.00,,,0.00,weatherlink.com 1.10,2013-06-17 20:05:00,
2013-06-17 16:20:00,80.5,70.0,29.88,SW,220,9.0,11.0,71,0.00,,,0.00,weatherlink.com 1.10,2013-06-17 20:20:00,
2013-06-17 16:35:00,81.6,70.0,29.87,SW,226,0.0,8.0,68,0.00,,,0.00,weatherlink.com 1.10,2013-06-17 20:35:00,
2013-06-17 16:50:00,80.3,70.0,29.87,SSW,205,9.0,13.0,71,0.00,,,0.00,weatherlink.com 1.10,2013-06-17 20:50:00,
2013-06-17 17:05:00,80.1,70.0,29.87,SSW,204,8.0,13.0,70,0.00,,,0.00,weatherlink.com 1.10,2013-06-17 21:05:00,
2013-06-17 17:20:00,80.7,71.0,29.86,SW,219,9.0,12.0,72,0.00,,,0.00,weatherlink.com 1.10,2013-06-17 21:20:00,
2013-06-17 17:35:00,80.3,70.0,29.87,SW,220,11.0,11.0,71,0.00,,,0.00,weatherlink.com 1.10,2013-06-17 21:35:00,
2013-06-17 17:50:00,80.7,71.0,29.86,SW,220,8.0,12.0,71,0.00,,,0.00,weatherlink.com 1.10,2013-06-17 21:50:00,
2013-06-17 18:05:00,80.7,71.0,29.87,SW,221,6.0,14.0,71,0.00,,,0.00,weatherlink.com 1.10,2013-06-17 22:05:00,
2013-06-17 18:20:00,80.5,72.0,29.87,SW,223,2.0,12.0,74,0.00,,,0.00,weatherlink.com 1.10,2013-06-17 22:20:00,
2013-06-17 18:35:00,80.1,72.0,29.87,SW,219,9.0,13.0,76,0.00,,,0.00,weatherlink.com 1.10,2013-06-17 22:35:00,
2013-06-17 18:50:00,80.5,71.0,29.87,SW,221,4.0,11.0,72,0.00,,,0.00,weatherlink.com 1.10,2013-06-17 22:50:00,
2013-06-17 19:05:00,80.1,71.0,29.87,SW,221,3.0,12.0,74,0.00,,,0.00,weatherlink.com 1.10,2013-06-17 23:05:00,
2013-06-17 19:20:00,79.9,71.0,29.87,SSW,212,3.0,10.0,74,0.00,,,0.00,weatherlink.com 1.10,2013-06-17 23:20:00,
2013-06-17 19:35:00,79.9,71.0,29.87,SW,218,5.0,10.0,75,0.00,,,0.00,weatherlink.com 1.10,2013-06-17 23:35:00,
2013-06-17 19:50:00,79.6,71.0,29.86,SW,224,6.0,8.0,76,0.00,,,0.00,weatherlink.com 1.10,2013-06-17 23:50:00,
2013-06-17 20:05:00,79.4,72.0,29.87,SW,221,2.0,7.0,78,0.00,,,0.00,weatherlink.com 1.10,2013-06-18 00:05:00,
2013-06-17 20:21:00,78.6,72.0,29.87,SW,219,1.0,5.0,80,0.00,,,0.00,weatherlink.com 1.10,2013-06-18 00:21:00,
2013-06-17 20:36:00,78.3,72.0,29.88,SW,219,0.0,4.0,82,0.00,,,0.00,weatherlink.com 1.10,2013-06-18 00:36:00,
2013-06-17 20:51:00,78.1,73.0,29.88,SW,219,2.0,4.0,83,0.00,,,0.00,weatherlink.com 1.10,2013-06-18 00:51:00,
2013-06-17 21:06:00,77.7,72.0,29.89,SW,219,0.0,2.0,83,0.00,,,0.00,weatherlink.com 1.10,2013-06-18 01:06:00,
2013-06-17 21:21:00,77.6,73.0,29.88,SW,219,2.0,3.0,84,0.00,,,0.00,weatherlink.com 1.10,2013-06-18 01:21:00,
2013-06-17 21:36:00,77.4,72.0,29.89,SW,219,0.0,2.0,84,0.00,,,0.00,weatherlink.com 1.10,2013-06-18 01:36:00,
2013-06-17 21:51:00,77.4,73.0,29.89,SW,219,0.0,1.0,85,0.00,,,0.00,weatherlink.com 1.10,2013-06-18 01:51:00,
2013-06-17 22:06:00,77.2,72.0,29.89,SW,219,2.0,4.0,84,0.00,,,0.00,weatherlink.com 1.10,2013-06-18 02:06:00,
2013-06-17 22:21:00,77.0,72.0,29.89,SW,219,2.0,3.0,83,0.00,,,0.00,weatherlink.com 1.10,2013-06-18 02:21:00,
2013-06-17 22:36:00,77.0,72.0,29.90,SW,219,0.0,1.0,83,0.00,,,0.00,weatherlink.com 1.10,2013-06-18 02:36:00,
2013-06-17 22:51:00,76.8,71.0,29.90,SW,219,0.0,1.0,83,0.00,,,0.00,weatherlink.com 1.10,2013-06-18 02:51:00,
2013-06-17 23:06:00,76.8,71.0,29.90,SW,219,0.0,1.0,83,0.00,,,0.00,weatherlink.com 1.10,2013-06-18 03:06:00,
2013-06-17 23:21:00,76.7,72.0,29.91,SW,219,0.0,0.0,84,0.00,,,0.00,weatherlink.com 1.10,2013-06-18 03:21:00,
2013-06-17 23:36:00,76.5,72.0,29.91,SW,219,3.0,4.0,85,0.00,,,0.00,weatherlink.com 1.10,2013-06-18 03:36:00,
2013-06-17 23:51:00,76.3,72.0,29.90,SW,218,2.0,4.0,85,0.00,,,0.00,weatherlink.com 1.10,2013-06-18 03:51:00,